Time;durP1;ratioP1;P1;durP2;ratioP2;P2;SDS_P1;SDS_P2;PMS_P1;PMS_P2;Temp;Humidity;BMP_temperature;BMP_pressure;BME280_temperature;BME280_humidity;BME280_pressure;Samples;Min_cycle;Max_cycle;Signal;HPM_P1;HPM_P2
2023/03/22 00:00:14;;;;;;;9.75;5.13;;;9.80;99.90;;;;;;5032055;28;20409;-64
2023/03/22 00:02:40;;;;;;;10.90;5.55;;;9.80;99.90;;;;;;5031088;28;20065;-65
2023/03/22 00:05:07;;;;;;;8.93;4.85;;;9.80;99.90;;;;;;5032696;28;20056;-65
2023/03/22 00:07:33;;;;;;;9.82;5.38;;;9.70;99.90;;;;;;5031887;28;20381;-65
2023/03/22 00:10:00;;;;;;;10.73;5.13;;;9.70;99.90;;;;;;5032287;28;20050;-65
2023/03/22 00:12:26;;;;;;;8.38;4.80;;;9.70;99.90;;;;;;5031877;28;20045;-65
2023/03/22 00:14:53;;;;;;;10.65;5.78;;;9.60;99.90;;;;;;5030389;28;20049;-64
2023/03/22 00:17:21;;;;;;;9.02;4.28;;;9.60;99.90;;;;;;5032162;28;20049;-64
2023/03/22 00:19:48;;;;;;;12.23;4.53;;;9.70;99.90;;;;;;5032509;28;20049;-64
2023/03/22 00:22:15;;;;;;;10.85;5.05;;;9.60;99.90;;;;;;5030361;28;20057;-65
2023/03/22 00:24:41;;;;;;;9.55;4.88;;;9.60;99.90;;;;;;5031863;28;20042;-65
2023/03/22 00:27:07;;;;;;;8.30;3.72;;;9.60;99.90;;;;;;5030905;28;20053;-65
2023/03/22 00:29:34;;;;;;;7.97;4.22;;;9.60;99.90;;;;;;5030535;28;20442;-65
2023/03/22 00:32:00;;;;;;;7.40;3.97;;;9.60;99.90;;;;;;5031583;28;20080;-65
2023/03/22 00:34:30;;;;;;;10.15;4.32;;;9.60;99.90;;;;;;5030389;28;20049;-65
2023/03/22 00:36:56;;;;;;;9.70;3.90;;;9.70;99.90;;;;;;5030651;28;20049;-64
2023/03/22 00:39:23;;;;;;;8.82;3.33;;;9.70;99.90;;;;;;5031034;28;20042;-64
2023/03/22 00:41:50;;;;;;;13.50;3.88;;;9.70;99.90;;;;;;5031996;28;20053;-65
2023/03/22 00:44:16;;;;;;;9.23;3.65;;;9.70;99.90;;;;;;5031100;28;20045;-65
2023/03/22 00:46:42;;;;;;;9.68;3.65;;;9.70;99.90;;;;;;5030963;28;20053;-65
2023/03/22 00:49:09;;;;;;;7.00;3.22;;;9.70;99.90;;;;;;5031940;28;20442;-64
2023/03/22 00:51:35;;;;;;;6.63;2.90;;;9.70;99.90;;;;;;5030458;28;20045;-64
2023/03/22 00:54:01;;;;;;;10.23;3.30;;;9.70;99.90;;;;;;5030125;28;20064;-64
2023/03/22 00:56:27;;;;;;;6.25;3.00;;;9.70;99.90;;;;;;5032254;28;20084;-64
2023/03/22 00:58:54;;;;;;;8.07;3.35;;;9.70;99.90;;;;;;5035983;28;20096;-65
2023/03/22 01:01:20;;;;;;;8.52;3.35;;;9.70;99.90;;;;;;5035407;28;20354;-65
2023/03/22 01:03:49;;;;;;;8.07;3.47;;;9.80;99.90;;;;;;5034321;28;20064;-65
2023/03/22 01:06:15;;;;;;;5.45;2.38;;;9.70;99.90;;;;;;5035304;28;20341;-65
2023/03/22 01:08:41;;;;;;;7.20;2.60;;;9.70;99.90;;;;;;5034722;28;20053;-65
2023/03/22 01:11:08;;;;;;;8.80;2.80;;;9.70;99.90;;;;;;5034309;28;20053;-65
2023/03/22 01:13:40;;;;;;;7.80;2.70;;;9.80;99.90;;;;;;5033919;28;20053;-64
2023/03/22 01:16:07;;;;;;;;;;;9.80;99.90;;;;;;5034351;28;20619;-65
2023/03/22 01:18:34;;;;;;;6.75;2.00;;;9.80;99.90;;;;;;5035578;28;19932;-65
2023/03/22 01:21:00;;;;;;;7.57;2.53;;;9.80;99.90;;;;;;5035355;28;20062;-65
2023/03/22 01:23:27;;;;;;;6.85;2.20;;;9.80;99.90;;;;;;5035144;28;20108;-64
2023/03/22 01:25:53;;;;;;;7.45;2.47;;;9.80;99.90;;;;;;5035132;28;20381;-65
2023/03/22 01:28:19;;;;;;;4.82;1.90;;;9.90;99.90;;;;;;5034307;28;20053;-64
2023/03/22 01:30:46;;;;;;;5.97;2.80;;;9.90;99.90;;;;;;5034768;28;20374;-64
2023/03/22 01:33:12;;;;;;;6.78;2.55;;;9.90;99.90;;;;;;5034503;28;20470;-64
2023/03/22 01:35:38;;;;;;;6.30;2.30;;;9.80;99.90;;;;;;5034007;28;20045;-65
2023/03/22 01:38:05;;;;;;;7.00;2.17;;;9.90;99.90;;;;;;5033824;28;20128;-64
2023/03/22 01:40:32;;;;;;;4.97;2.00;;;9.90;99.90;;;;;;5035071;28;20056;-64
2023/03/22 01:42:59;;;;;;;6.22;2.08;;;9.90;99.90;;;;;;5034409;28;20042;-65
2023/03/22 01:45:31;;;;;;;8.20;2.10;;;9.90;99.90;;;;;;5034671;28;20084;-63
2023/03/22 01:48:02;;;;;;;6.15;2.30;;;9.90;99.90;;;;;;5034980;28;20060;-65
2023/03/22 01:50:29;;;;;;;6.50;2.83;;;9.90;99.90;;;;;;5035052;28;20420;-64
2023/03/22 01:52:56;;;;;;;6.70;2.60;;;9.90;99.90;;;;;;5034497;28;20381;-64
2023/03/22 01:55:24;;;;;;;8.90;2.42;;;9.90;99.90;;;;;;5034373;28;20057;-64
2023/03/22 01:57:52;;;;;;;7.72;2.65;;;9.90;99.90;;;;;;5034730;28;20049;-65
2023/03/22 02:00:20;;;;;;;5.65;2.10;;;9.80;99.90;;;;;;5033975;28;20082;-64
2023/03/22 02:02:50;;;;;;;6.90;2.58;;;9.90;99.90;;;;;;5033098;28;20338;-65
2023/03/22 02:05:17;;;;;;;8.55;2.20;;;9.90;99.90;;;;;;5034533;28;20049;-65
2023/03/22 02:07:44;;;;;;;10.40;2.50;;;9.80;99.90;;;;;;5033230;28;20064;-64
2023/03/22 02:10:17;;;;;;;6.88;2.08;;;9.90;99.90;;;;;;5033578;28;20072;-64
2023/03/22 02:13:08;;;;;;;8.15;2.80;;;9.80;99.90;;;;;;5032959;28;20065;-64
2023/03/22 02:15:47;;;;;;;6.95;2.47;;;9.90;99.90;;;;;;5033638;28;20206;-64
2023/03/22 02:18:34;;;;;;;12.82;3.10;;;9.80;99.90;;;;;;5033112;28;20052;-64
2023/03/22 02:21:15;;;;;;;5.13;2.75;;;9.80;99.90;;;;;;5032961;28;20067;-65
2023/03/22 02:24:09;;;;;;;8.30;3.20;;;9.80;99.90;;;;;;5033630;28;20429;-64
2023/03/22 02:27:05;;;;;;;8.25;2.67;;;9.80;99.90;;;;;;5033741;28;20063;-64
2023/03/22 02:29:44;;;;;;;7.63;2.47;;;9.80;99.90;;;;;;5034120;28;20041;-63
2023/03/22 02:32:51;;;;;;;5.93;2.42;;;9.80;99.90;;;;;;5033643;28;20146;-65
2023/03/22 02:35:28;;;;;;;6.53;2.45;;;9.80;99.90;;;;;;5002692;28;20061;-64
2023/03/22 02:38:24;;;;;;;7.03;3.10;;;9.80;99.90;;;;;;5011942;28;20060;-65
2023/03/22 02:41:09;;;;;;;9.30;2.75;;;9.70;99.90;;;;;;5013018;28;20053;-65
2023/03/22 02:44:07;;;;;;;5.20;2.78;;;9.70;99.90;;;;;;5013743;28;20259;-64
2023/03/22 02:46:45;;;;;;;8.23;2.65;;;9.70;99.90;;;;;;5032279;28;20045;-64
2023/03/22 02:49:20;;;;;;;10.43;2.88;;;9.60;99.90;;;;;;5032956;28;20420;-64
2023/03/22 02:51:54;;;;;;;6.85;2.42;;;9.70;99.90;;;;;;5033984;28;20041;-64
2023/03/22 02:54:38;;;;;;;7.80;2.67;;;9.70;99.90;;;;;;5032485;28;20053;-65
2023/03/22 02:57:29;;;;;;;8.27;3.53;;;9.60;99.90;;;;;;5033668;28;20055;-65
2023/03/22 02:59:58;;;;;;;5.93;2.50;;;9.70;99.90;;;;;;5033580;28;20041;-65
2023/03/22 03:02:26;;;;;;;6.00;2.75;;;9.70;99.90;;;;;;5032186;28;20053;-64
2023/03/22 03:04:54;;;;;;;6.72;3.28;;;9.60;99.90;;;;;;5032420;28;20053;-65
2023/03/22 03:07:26;;;;;;;9.65;3.05;;;9.70;99.90;;;;;;5032320;28;20061;-64
2023/03/22 03:09:53;;;;;;;6.40;2.95;;;9.70;99.90;;;;;;5033262;28;20041;-64
2023/03/22 03:12:22;;;;;;;8.27;3.20;;;9.60;99.90;;;;;;5031547;28;20057;-64
2023/03/22 03:14:49;;;;;;;9.88;3.17;;;9.60;99.90;;;;;;5032645;28;20087;-64
2023/03/22 03:17:33;;;;;;;8.80;3.00;;;9.70;99.90;;;;;;5032013;28;20064;-64
2023/03/22 03:20:15;;;;;;;8.32;2.95;;;9.70;99.90;;;;;;5031493;28;20049;-64
2023/03/22 03:22:52;;;;;;;8.60;2.90;;;9.70;99.90;;;;;;5032501;28;20513;-65
2023/03/22 03:25:46;;;;;;;7.57;3.30;;;9.60;99.90;;;;;;5031979;28;20401;-64
2023/03/22 03:28:21;;;;;;;7.22;3.25;;;9.70;99.90;;;;;;5033118;28;20061;-64
2023/03/22 03:31:08;;;;;;;8.13;3.00;;;9.70;99.90;;;;;;5032276;28;20053;-65
2023/03/22 03:33:40;;;;;;;6.03;2.50;;;9.70;99.90;;;;;;5028280;28;20064;-65
2023/03/22 03:36:08;;;;;;;;;;;9.70;99.90;;;;;;5032228;28;20490;-65
2023/03/22 03:38:38;;;;;;;8.57;2.83;;;9.70;99.90;;;;;;5032624;28;20300;-64
2023/03/22 03:41:13;;;;;;;5.30;2.72;;;9.70;99.90;;;;;;5033269;28;20056;-64
2023/03/22 03:43:40;;;;;;;8.25;2.95;;;9.80;99.90;;;;;;5031194;28;20053;-65
2023/03/22 03:46:07;;;;;;;7.60;3.55;;;9.70;99.90;;;;;;5032342;28;20099;-64
2023/03/22 03:48:36;;;;;;;8.52;3.05;;;9.70;99.90;;;;;;5032596;28;20057;-64
2023/03/22 03:51:03;;;;;;;7.22;4.32;;;9.80;99.90;;;;;;5032303;28;20409;-65
2023/03/22 03:53:30;;;;;;;9.18;3.47;;;9.80;99.90;;;;;;5032008;28;20137;-64
2023/03/22 03:55:56;;;;;;;9.48;4.28;;;9.80;99.90;;;;;;5032605;28;20344;-63
2023/03/22 03:58:22;;;;;;;10.75;3.42;;;9.80;99.90;;;;;;5032491;28;20136;-64
2023/03/22 04:00:49;;;;;;;9.07;3.72;;;9.70;99.90;;;;;;5032066;28;20457;-65
2023/03/22 04:03:16;;;;;;;8.02;3.58;;;9.70;99.90;;;;;;5030977;28;20056;-64
2023/03/22 04:05:43;;;;;;;10.00;4.13;;;9.70;99.90;;;;;;5032381;28;20045;-64
2023/03/22 04:08:09;;;;;;;6.35;3.65;;;9.70;99.90;;;;;;5032307;28;20200;-64
2023/03/22 04:10:37;;;;;;;10.25;4.60;;;9.80;99.90;;;;;;5032648;28;20111;-64
2023/03/22 04:13:04;;;;;;;11.20;4.72;;;9.70;99.90;;;;;;5033388;28;20427;-64
2023/03/22 04:15:31;;;;;;;10.63;4.72;;;9.70;99.90;;;;;;5031039;28;20121;-64
2023/03/22 04:17:58;;;;;;;11.00;5.30;;;9.70;99.90;;;;;;5033229;28;20041;-65
2023/03/22 04:20:28;;;;;;;8.20;5.88;;;9.70;99.90;;;;;;5033442;28;20409;-64
2023/03/22 04:22:56;;;;;;;12.13;5.45;;;9.80;99.90;;;;;;5032403;28;20053;-64
2023/03/22 04:25:23;;;;;;;8.98;4.97;;;9.80;99.90;;;;;;5033145;28;20053;-64
2023/03/22 04:27:50;;;;;;;11.43;5.82;;;9.70;99.90;;;;;;5032703;28;20079;-64
2023/03/22 04:30:21;;;;;;;13.85;6.20;;;9.70;99.90;;;;;;5033210;28;20485;-64
2023/03/22 04:32:48;;;;;;;10.90;6.40;;;9.70;99.90;;;;;;5032336;28;20103;-64
2023/03/22 04:35:15;;;;;;;11.80;6.15;;;9.70;99.90;;;;;;5031963;28;20045;-64
2023/03/22 04:37:41;;;;;;;11.65;6.45;;;9.80;99.90;;;;;;5031990;28;20053;-65
2023/03/22 04:40:14;;;;;;;12.45;6.32;;;9.70;99.90;;;;;;5032381;28;20053;-64
2023/03/22 04:42:42;;;;;;;13.30;6.97;;;9.70;99.90;;;;;;5031750;28;20052;-64
2023/03/22 04:45:10;;;;;;;15.00;7.28;;;9.70;99.90;;;;;;5032765;28;20041;-64
2023/03/22 04:47:36;;;;;;;12.48;6.80;;;9.70;99.90;;;;;;5033225;28;20049;-64
2023/03/22 04:50:03;;;;;;;10.13;7.10;;;9.80;99.90;;;;;;5032301;28;20065;-64
2023/03/22 04:52:29;;;;;;;11.63;6.97;;;9.70;99.90;;;;;;5032509;28;20052;-64
2023/03/22 04:54:56;;;;;;;12.82;7.75;;;9.70;99.90;;;;;;5032802;28;20046;-64
2023/03/22 04:57:23;;;;;;;12.65;7.43;;;9.70;99.90;;;;;;5031340;28;20053;-64
2023/03/22 04:59:49;;;;;;;14.02;8.52;;;9.80;99.90;;;;;;5032640;28;20045;-65
2023/03/22 05:02:16;;;;;;;15.05;8.38;;;9.80;99.90;;;;;;5029245;28;20046;-64
2023/03/22 05:04:43;;;;;;;11.77;7.32;;;9.90;99.90;;;;;;5030927;28;20061;-64
2023/03/22 05:07:09;;;;;;;15.50;8.23;;;9.90;99.90;;;;;;5031639;28;20461;-64
2023/03/22 05:09:35;;;;;;;12.75;7.72;;;9.80;99.90;;;;;;5032336;28;20465;-64
2023/03/22 05:12:01;;;;;;;15.70;7.72;;;9.90;99.90;;;;;;5032038;28;20053;-64
2023/03/22 05:14:28;;;;;;;12.20;8.18;;;9.90;99.90;;;;;;5030875;28;20069;-65
2023/03/22 05:16:57;;;;;;;16.42;9.23;;;9.90;99.90;;;;;;5032806;28;20338;-64
2023/03/22 05:19:23;;;;;;;13.10;9.65;;;9.90;99.90;;;;;;5032673;28;20454;-64
2023/03/22 05:21:56;;;;;;;12.95;7.25;;;9.90;99.90;;;;;;5032658;28;20056;-65
2023/03/22 05:24:23;;;;;;;11.98;7.68;;;9.90;99.90;;;;;;5033040;28;20060;-64
2023/03/22 05:26:52;;;;;;;14.88;8.25;;;9.90;99.90;;;;;;5031917;28;20072;-64
2023/03/22 05:29:25;;;;;;;14.13;7.72;;;9.80;99.90;;;;;;5032943;28;20057;-64
2023/03/22 05:31:52;;;;;;;12.10;8.35;;;9.90;99.90;;;;;;5032167;28;20185;-64
2023/03/22 05:34:19;;;;;;;14.20;8.02;;;9.80;99.90;;;;;;5032914;28;20398;-64
2023/03/22 05:36:45;;;;;;;13.40;7.90;;;9.80;99.90;;;;;;5032255;28;20057;-65
2023/03/22 05:39:14;;;;;;;12.48;7.68;;;9.90;99.90;;;;;;5031840;28;20064;-64
2023/03/22 05:41:40;;;;;;;12.48;7.45;;;9.90;99.90;;;;;;5032268;28;20045;-64
2023/03/22 05:44:07;;;;;;;14.30;8.68;;;9.80;99.90;;;;;;5035177;28;20049;-64
2023/03/22 05:46:40;;;;;;;18.50;7.78;;;9.90;99.90;;;;;;5035823;28;20124;-64
2023/03/22 05:49:06;;;;;;;14.18;8.10;;;9.90;99.90;;;;;;5034011;28;20045;-64
2023/03/22 05:51:35;;;;;;;14.05;9.50;;;9.90;99.90;;;;;;5035111;28;20373;-65
2023/03/22 05:54:01;;;;;;;13.57;7.68;;;9.90;99.90;;;;;;5035752;28;20049;-64
2023/03/22 05:56:28;;;;;;;13.18;6.85;;;9.90;99.90;;;;;;5035598;28;20049;-65
2023/03/22 05:58:54;;;;;;;13.55;7.82;;;9.90;99.90;;;;;;5032709;28;20041;-64
2023/03/22 06:01:21;;;;;;;12.98;7.63;;;10.00;99.90;;;;;;5034495;28;20049;-65
2023/03/22 06:03:48;;;;;;;11.23;7.50;;;9.90;99.90;;;;;;5034713;28;20057;-65
2023/03/22 06:06:14;;;;;;;12.25;7.63;;;9.90;99.90;;;;;;5035005;28;20060;-64
2023/03/22 06:08:41;;;;;;;13.43;8.27;;;10.00;99.90;;;;;;5035916;28;20056;-64
2023/03/22 06:11:07;;;;;;;14.85;8.05;;;9.90;99.90;;;;;;5034105;28;20060;-64
2023/03/22 06:13:34;;;;;;;13.25;7.88;;;9.90;99.90;;;;;;5035358;28;20045;-64
2023/03/22 06:16:02;;;;;;;12.93;7.97;;;10.00;99.90;;;;;;5034367;28;20346;-64
2023/03/22 06:18:29;;;;;;;15.82;8.93;;;10.00;99.90;;;;;;5034589;28;20041;-65
2023/03/22 06:20:56;;;;;;;14.77;8.75;;;10.00;99.90;;;;;;5036014;28;20050;-65
2023/03/22 06:23:22;;;;;;;12.75;8.10;;;10.00;99.90;;;;;;5035326;28;20053;-64
2023/03/22 06:25:49;;;;;;;13.05;8.48;;;10.10;99.90;;;;;;5035500;28;20072;-64
2023/03/22 06:28:15;;;;;;;12.77;8.43;;;10.10;99.90;;;;;;5035422;28;20060;-65
2023/03/22 06:30:41;;;;;;;15.63;8.43;;;10.20;99.90;;;;;;5035551;28;20052;-64
2023/03/22 06:33:08;;;;;;;16.67;8.65;;;10.30;99.90;;;;;;5034570;28;20519;-65
2023/03/22 06:35:35;;;;;;;13.07;9.35;;;10.40;99.90;;;;;;5035159;28;20370;-64
2023/03/22 06:38:01;;;;;;;12.50;7.72;;;10.40;99.90;;;;;;5035412;28;20052;-64
2023/03/22 06:40:34;;;;;;;10.48;7.22;;;10.50;99.90;;;;;;5035365;28;20586;-64
2023/03/22 06:43:00;;;;;;;13.52;7.35;;;10.50;99.90;;;;;;5034909;28;20053;-65
2023/03/22 06:45:33;;;;;;;12.65;7.90;;;10.60;99.90;;;;;;5035191;28;20071;-64
2023/03/22 06:47:59;;;;;;;13.55;7.75;;;10.60;99.90;;;;;;5035273;28;20172;-64
2023/03/22 06:50:28;;;;;;;11.77;6.75;;;10.60;99.90;;;;;;5035653;28;20512;-63
2023/03/22 06:52:55;;;;;;;10.85;7.20;;;10.70;99.90;;;;;;5034692;28;20103;-64
2023/03/22 06:55:21;;;;;;;13.98;8.13;;;10.70;99.90;;;;;;5033249;28;20052;-64
2023/03/22 06:57:48;;;;;;;12.13;6.60;;;10.70;99.90;;;;;;5035001;28;20092;-64
2023/03/22 07:00:15;;;;;;;10.60;7.53;;;10.80;99.90;;;;;;5033427;28;20049;-65
2023/03/22 07:02:42;;;;;;;13.25;8.10;;;10.80;99.90;;;;;;5034819;28;20354;-65
2023/03/22 07:05:09;;;;;;;10.52;6.95;;;10.80;99.90;;;;;;5034218;28;20067;-65
2023/03/22 07:07:35;;;;;;;10.45;6.78;;;10.70;99.90;;;;;;5035077;28;20168;-65
2023/03/22 07:10:06;;;;;;;9.27;6.50;;;10.80;99.90;;;;;;5035054;28;20061;-65
2023/03/22 07:12:33;;;;;;;10.90;6.65;;;10.80;99.90;;;;;;5033603;28;20045;-65
2023/03/22 07:14:59;;;;;;;12.50;6.00;;;10.90;99.90;;;;;;5033240;28;20049;-65
2023/03/22 07:17:25;;;;;;;11.23;6.25;;;10.90;99.90;;;;;;5034591;28;20420;-65
2023/03/22 07:19:52;;;;;;;11.00;5.88;;;10.90;99.90;;;;;;5034513;28;20055;-65
2023/03/22 07:22:21;;;;;;;12.35;6.55;;;11.00;99.90;;;;;;5033644;28;20058;-65
2023/03/22 07:24:51;;;;;;;9.65;5.75;;;11.00;99.90;;;;;;5033370;28;20123;-64
2023/03/22 07:27:20;;;;;;;7.70;4.82;;;11.00;99.90;;;;;;5032823;28;20045;-64
2023/03/22 07:29:46;;;;;;;10.65;6.35;;;11.00;99.90;;;;;;5032492;28;20049;-64
2023/03/22 07:32:13;;;;;;;8.45;5.03;;;11.10;99.90;;;;;;5034432;28;20056;-64
2023/03/22 07:34:46;;;;;;;8.27;4.97;;;11.10;99.90;;;;;;5033730;28;20057;-65
2023/03/22 07:37:12;;;;;;;8.10;5.30;;;11.10;99.90;;;;;;5034054;28;20472;-64
2023/03/22 07:39:44;;;;;;;11.45;5.75;;;11.00;99.90;;;;;;5034230;28;20045;-65
2023/03/22 07:42:17;;;;;;;7.75;5.20;;;11.00;99.90;;;;;;5032793;28;20366;-66
2023/03/22 07:44:45;;;;;;;8.85;4.63;;;11.00;99.90;;;;;;5031610;28;20068;-64
2023/03/22 07:47:12;;;;;;;8.38;4.45;;;11.00;99.90;;;;;;5034106;28;20049;-65
2023/03/22 07:49:38;;;;;;;8.50;4.55;;;11.00;99.90;;;;;;5034083;28;20179;-64
2023/03/22 07:52:11;;;;;;;8.45;4.80;;;11.00;99.90;;;;;;5033902;28;20485;-65
2023/03/22 07:54:37;;;;;;;8.65;4.63;;;11.10;99.90;;;;;;5033312;28;20458;-65
2023/03/22 07:57:05;;;;;;;12.85;4.18;;;11.00;99.90;;;;;;5034002;28;20111;-65
2023/03/22 07:59:38;;;;;;;9.95;4.88;;;11.10;99.90;;;;;;5033605;28;20057;-64
2023/03/22 08:02:05;;;;;;;7.45;4.18;;;11.20;99.90;;;;;;5033582;28;20060;-65
2023/03/22 08:04:33;;;;;;;7.78;3.83;;;11.10;99.90;;;;;;5033043;28;20114;-65
2023/03/22 08:06:59;;;;;;;8.85;4.30;;;11.10;99.90;;;;;;5012899;28;20116;-65
2023/03/22 08:09:26;;;;;;;10.13;4.50;;;11.20;99.90;;;;;;5014001;28;20046;-64
2023/03/22 08:11:52;;;;;;;8.93;4.38;;;11.20;99.90;;;;;;5014029;28;20049;-65
2023/03/22 08:14:18;;;;;;;11.15;4.95;;;11.20;99.90;;;;;;5013055;28;20073;-64
2023/03/22 08:16:46;;;;;;;9.00;4.53;;;11.20;99.90;;;;;;5032199;28;20045;-64
2023/03/22 08:19:13;;;;;;;8.60;4.07;;;11.20;99.90;;;;;;5033306;28;20479;-65
2023/03/22 08:21:41;;;;;;;8.25;4.18;;;11.20;99.90;;;;;;5033544;28;20042;-64
2023/03/22 08:24:08;;;;;;;9.13;3.97;;;11.20;99.90;;;;;;5032703;28;20053;-65
2023/03/22 08:26:34;;;;;;;11.10;4.22;;;11.30;99.90;;;;;;5033155;28;20060;-65
2023/03/22 08:29:01;;;;;;;7.50;4.07;;;11.30;99.90;;;;;;5033304;28;20057;-65
2023/03/22 08:31:28;;;;;;;9.93;4.95;;;11.40;99.90;;;;;;5033510;28;20049;-65
2023/03/22 08:33:56;;;;;;;8.25;3.92;;;11.50;99.90;;;;;;5032686;28;20062;-65
2023/03/22 08:36:22;;;;;;;10.15;4.13;;;11.60;99.90;;;;;;5032174;28;20045;-66
2023/03/22 08:38:49;;;;;;;7.65;4.10;;;11.60;99.90;;;;;;5033330;28;20080;-65
2023/03/22 08:41:22;;;;;;;8.23;4.30;;;11.70;99.90;;;;;;5033242;28;20053;-65
2023/03/22 08:43:48;;;;;;;9.93;4.07;;;11.80;99.90;;;;;;5032752;28;20054;-66
2023/03/22 08:46:18;;;;;;;9.70;4.72;;;11.80;99.90;;;;;;5032763;28;20060;-65
2023/03/22 08:48:49;;;;;;;8.23;4.00;;;11.90;99.90;;;;;;5032857;28;20458;-65
2023/03/22 08:51:20;;;;;;;8.48;3.85;;;11.90;99.90;;;;;;5033012;28;20099;-65
2023/03/22 08:53:47;;;;;;;10.25;4.35;;;12.00;99.90;;;;;;5032453;28;20103;-65
2023/03/22 08:56:15;;;;;;;8.77;4.38;;;11.90;99.90;;;;;;5031844;28;20061;-65
2023/03/22 08:58:45;;;;;;;7.10;3.60;;;12.00;99.90;;;;;;5033285;28;20050;-66
2023/03/22 09:01:13;;;;;;;9.52;3.78;;;12.00;99.90;;;;;;5033323;28;20132;-64
2023/03/22 09:03:40;;;;;;;7.70;3.65;;;12.00;99.90;;;;;;5033020;28;20049;-65
2023/03/22 09:06:07;;;;;;;10.45;3.60;;;12.00;99.90;;;;;;5032838;28;20064;-66
2023/03/22 09:08:33;;;;;;;10.02;3.97;;;12.00;99.90;;;;;;5033527;28;20045;-65
2023/03/22 09:11:09;;;;;;;9.10;3.58;;;12.00;99.90;;;;;;5033054;28;20045;-65
2023/03/22 09:13:38;;;;;;;8.65;4.25;;;12.00;99.90;;;;;;5032413;28;20373;-65
2023/03/22 09:16:07;;;;;;;7.93;3.90;;;12.00;99.90;;;;;;5031844;28;20069;-65
2023/03/22 09:18:35;;;;;;;10.50;3.33;;;12.10;99.90;;;;;;5034219;28;20068;-64
2023/03/22 09:21:02;;;;;;;9.65;4.57;;;12.10;99.90;;;;;;5036835;28;20120;-65
2023/03/22 09:23:36;;;;;;;8.73;3.67;;;12.10;99.90;;;;;;5036846;28;20045;-66
2023/03/22 09:26:05;;;;;;;8.77;3.50;;;12.10;99.90;;;;;;5035102;28;20057;-65
2023/03/22 09:28:32;;;;;;;8.73;3.40;;;12.20;99.90;;;;;;5036713;28;20056;-66
2023/03/22 09:31:00;;;;;;;9.57;3.30;;;12.20;99.90;;;;;;5036534;28;20045;-65
2023/03/22 09:33:27;;;;;;;6.70;3.42;;;12.10;99.90;;;;;;5036811;28;20445;-65
2023/03/22 09:35:54;;;;;;;9.18;3.63;;;12.10;99.90;;;;;;5036161;28;20046;-65
2023/03/22 09:38:21;;;;;;;9.10;3.85;;;12.00;99.90;;;;;;5036595;28;20458;-65
2023/03/22 09:41:00;;;;;;;10.38;3.60;;;12.00;99.90;;;;;;5035311;28;20065;-65
2023/03/22 09:43:36;;;;;;;7.50;3.63;;;11.80;99.90;;;;;;5036374;28;20436;-65
2023/03/22 09:46:07;;;;;;;7.55;3.10;;;11.90;99.90;;;;;;5035135;28;20072;-65
2023/03/22 09:48:41;;;;;;;8.75;4.15;;;11.90;99.90;;;;;;5035586;28;20425;-66
2023/03/22 09:51:33;;;;;;;7.18;3.05;;;11.90;99.90;;;;;;5036941;28;20084;-65
2023/03/22 09:54:00;;;;;;;5.22;3.28;;;11.90;99.90;;;;;;5035307;28;20406;-65
2023/03/22 09:56:29;;;;;;;8.77;3.30;;;11.90;99.90;;;;;;5035805;28;20458;-65
2023/03/22 09:59:13;;;;;;;10.52;3.78;;;11.90;99.90;;;;;;5036400;28;20049;-65
2023/03/22 10:02:09;;;;;;;5.85;2.90;;;11.90;99.90;;;;;;5036111;28;20107;-65
2023/03/22 10:04:58;;;;;;;6.35;2.85;;;11.90;99.90;;;;;;5034404;28;20076;-65
2023/03/22 10:07:43;;;;;;;7.10;3.38;;;11.80;99.90;;;;;;5036266;28;20064;-65
2023/03/22 10:10:18;;;;;;;8.02;4.18;;;11.90;99.90;;;;;;5035656;28;20501;-65
2023/03/22 10:13:12;;;;;;;7.05;3.60;;;11.80;99.90;;;;;;5035813;28;20053;-65
2023/03/22 10:15:49;;;;;;;5.78;3.15;;;11.80;99.90;;;;;;5033449;28;20053;-65
2023/03/22 10:18:24;;;;;;;6.80;3.42;;;11.80;99.90;;;;;;5035801;28;20046;-65
2023/03/22 10:21:07;;;;;;;9.50;3.97;;;11.80;99.90;;;;;;5035460;28;20478;-65
2023/03/22 10:23:43;;;;;;;8.13;3.13;;;11.80;99.90;;;;;;5035367;28;20072;-65
2023/03/22 10:26:25;;;;;;;5.78;3.45;;;11.80;99.90;;;;;;5035397;28;20046;-65
2023/03/22 10:29:00;;;;;;;7.97;3.15;;;11.80;99.90;;;;;;5033875;28;20049;-65
2023/03/22 10:31:32;;;;;;;5.65;3.30;;;11.80;99.90;;;;;;5035571;28;20504;-65
2023/03/22 10:34:06;;;;;;;6.32;3.70;;;11.80;99.90;;;;;;5034773;28;20152;-66
2023/03/22 10:36:35;;;;;;;7.78;3.60;;;11.80;99.90;;;;;;5035057;28;20386;-65
2023/03/22 10:39:31;;;;;;;6.95;3.78;;;11.70;99.90;;;;;;5035054;28;20316;-65
2023/03/22 10:42:24;;;;;;;7.00;3.88;;;11.70;99.90;;;;;;5034039;28;20076;-67
2023/03/22 10:45:04;;;;;;;6.18;3.90;;;11.60;99.90;;;;;;5034455;28;20053;-65
2023/03/22 10:47:52;;;;;;;9.05;3.42;;;11.50;99.90;;;;;;5035289;28;20123;-65
2023/03/22 10:50:27;;;;;;;7.65;3.15;;;11.50;99.90;;;;;;5035396;28;20430;-66
2023/03/22 10:53:04;;;;;;;7.78;3.00;;;11.40;99.90;;;;;;5034039;28;20050;-66
2023/03/22 10:55:31;;;;;;;9.07;3.78;;;11.40;99.90;;;;;;5034516;28;20056;-66
2023/03/22 10:58:18;;;;;;;8.65;3.15;;;11.40;99.90;;;;;;5034980;28;20416;-66
2023/03/22 11:00:52;;;;;;;7.88;3.13;;;11.30;99.90;;;;;;5034798;28;20049;-65
2023/03/22 11:03:36;;;;;;;6.68;3.40;;;11.30;99.90;;;;;;5035102;28;20141;-65
2023/03/22 11:06:28;;;;;;;6.10;3.03;;;11.30;99.90;;;;;;5034722;28;20057;-65
2023/03/22 11:09:15;;;;;;;5.32;3.22;;;11.30;99.90;;;;;;5035050;28;20067;-66
2023/03/22 11:11:53;;;;;;;8.48;2.90;;;11.30;99.90;;;;;;5033829;28;20064;-66
2023/03/22 11:14:27;;;;;;;7.00;3.13;;;11.20;99.90;;;;;;5032856;28;20053;-66
2023/03/22 11:16:56;;;;;;;6.30;3.30;;;11.20;99.90;;;;;;5033691;28;20115;-66
2023/03/22 11:19:30;;;;;;;4.95;2.63;;;11.20;99.90;;;;;;5035038;28;20065;-65
2023/03/22 11:22:05;;;;;;;6.10;2.75;;;11.30;99.90;;;;;;5034709;28;20119;-66
2023/03/22 11:24:33;;;;;;;5.65;2.65;;;11.30;99.90;;;;;;5034006;28;20067;-66
2023/03/22 11:27:47;;;;;;;6.07;2.97;;;11.30;99.90;;;;;;5032587;28;20045;-66
2023/03/22 11:30:26;;;;;;;6.72;2.88;;;11.20;99.90;;;;;;5027404;28;20227;-66
2023/03/22 11:33:29;;;;;;;10.15;3.63;;;11.30;99.90;;;;;;5032474;28;20045;-66
2023/03/22 11:36:03;;;;;;;7.75;3.60;;;11.30;99.90;;;;;;5021838;28;20346;-66
2023/03/22 11:38:45;;;;;;;9.35;3.28;;;11.30;99.90;;;;;;5033458;28;20045;-66
2023/03/22 11:41:28;;;;;;;7.97;3.00;;;11.40;99.90;;;;;;5033953;28;20060;-66
2023/03/22 11:44:03;;;;;;;7.68;3.20;;;11.30;99.90;;;;;;5033028;28;20056;-66
2023/03/22 11:46:30;;;;;;;5.68;3.05;;;11.40;99.90;;;;;;5033791;28;20056;-66
2023/03/22 11:49:02;;;;;;;6.57;2.97;;;11.40;99.90;;;;;;5033319;28;20052;-66
2023/03/22 11:51:33;;;;;;;7.10;3.30;;;11.40;99.90;;;;;;5032678;28;20061;-66
2023/03/22 11:54:12;;;;;;;7.53;4.00;;;11.40;99.90;;;;;;5033328;28;20358;-66
2023/03/22 11:56:47;;;;;;;10.23;3.83;;;11.40;99.90;;;;;;5033742;28;20366;-66
2023/03/22 11:59:29;;;;;;;6.03;2.97;;;11.40;99.90;;;;;;5033959;28;20053;-65
2023/03/22 12:02:25;;;;;;;5.93;2.80;;;11.40;99.90;;;;;;5033779;28;20053;-66
2023/03/22 12:05:03;;;;;;;6.05;2.72;;;11.40;99.90;;;;;;5033373;28;20050;-66
2023/03/22 12:07:33;;;;;;;7.32;3.53;;;11.40;99.90;;;;;;5033836;28;20049;-66
2023/03/22 12:10:09;;;;;;;5.55;2.95;;;11.40;99.90;;;;;;5033660;28;20050;-66
2023/03/22 12:12:48;;;;;;;8.63;3.00;;;11.40;99.90;;;;;;5033451;28;20481;-66
2023/03/22 12:15:21;;;;;;;5.18;2.67;;;11.50;99.90;;;;;;5032263;28;20042;-66
2023/03/22 12:18:07;;;;;;;6.43;2.72;;;11.40;99.90;;;;;;5032312;28;20052;-66
2023/03/22 12:21:00;;;;;;;5.35;2.95;;;11.40;99.90;;;;;;5033599;28;20049;-66
2023/03/22 12:23:30;;;;;;;6.15;2.72;;;11.40;99.90;;;;;;5031990;28;20046;-65
2023/03/22 12:26:09;;;;;;;5.70;2.45;;;11.40;99.90;;;;;;5033211;28;20045;-66
2023/03/22 12:28:46;;;;;;;7.30;2.85;;;11.40;99.90;;;;;;5032522;28;20053;-66
2023/03/22 12:31:18;;;;;;;4.53;2.92;;;11.40;99.90;;;;;;5032107;28;20061;-66
2023/03/22 12:33:52;;;;;;;6.80;3.25;;;11.40;99.90;;;;;;5032814;28;20049;-66
2023/03/22 12:36:37;;;;;;;5.43;2.95;;;11.40;99.90;;;;;;5033033;28;20111;-66
2023/03/22 12:39:06;;;;;;;7.93;3.20;;;11.40;99.90;;;;;;5032962;28;20432;-66
2023/03/22 12:41:36;;;;;;;6.38;3.30;;;11.40;99.90;;;;;;5033032;28;20049;-66
2023/03/22 12:44:12;;;;;;;8.07;3.20;;;11.40;99.90;;;;;;5032826;28;20067;-66
2023/03/22 12:46:59;;;;;;;6.10;3.33;;;11.30;99.90;;;;;;5031959;28;20061;-67
2023/03/22 12:49:39;;;;;;;9.00;3.63;;;11.40;99.90;;;;;;5033170;28;20072;-66
2023/03/22 12:52:12;;;;;;;6.97;3.85;;;11.30;99.90;;;;;;5028314;28;20069;-66
2023/03/22 12:54:40;;;;;;;6.65;3.35;;;11.30;99.90;;;;;;5013052;28;20129;-66
2023/03/22 12:57:08;;;;;;;7.97;3.60;;;11.20;99.90;;;;;;5031971;28;20053;-66
2023/03/22 12:59:44;;;;;;;6.90;3.22;;;11.10;99.90;;;;;;5031781;28;20103;-66
2023/03/22 13:02:22;;;;;;;8.25;3.58;;;11.10;99.90;;;;;;5032709;28;20046;-66
2023/03/22 13:04:53;;;;;;;9.07;3.72;;;11.10;99.90;;;;;;5031163;28;20057;-67
2023/03/22 13:07:50;;;;;;;6.22;3.10;;;11.10;99.90;;;;;;4996268;28;20057;-66
2023/03/22 13:10:32;;;;;;;8.07;4.07;;;11.10;99.90;;;;;;5012124;28;20057;-66